Time;durP1;ratioP1;P1;durP2;ratioP2;P2;SDS_P1;SDS_P2;PMS_P1;PMS_P2;Temp;Humidity;BMP_temperature;BMP_pressure;BME280_temperature;BME280_humidity;BME280_pressure;Samples;Min_cycle;Max_cycle;Signal;HPM_P1;HPM_P2
2023/11/24 00:01:12;;;;;;;15.75;3.42;;;5.50;99.90;;;;;;5076993;28;20064;-57
2023/11/24 00:03:38;;;;;;;21.35;3.80;;;5.50;99.90;;;;;;5076407;28;20501;-60
2023/11/24 00:06:04;;;;;;;14.55;2.35;;;5.50;99.90;;;;;;5076188;28;20055;-60
2023/11/24 00:08:30;;;;;;;14.80;2.60;;;5.50;99.90;;;;;;5075294;28;20048;-57
2023/11/24 00:10:55;;;;;;;13.57;1.92;;;5.60;99.90;;;;;;5079136;28;20028;-57
2023/11/24 00:13:21;;;;;;;16.23;2.17;;;5.60;99.90;;;;;;5079890;28;20067;-61
2023/11/24 00:15:47;;;;;;;17.02;2.33;;;5.60;99.90;;;;;;5072954;28;20124;-60
2023/11/24 00:18:13;;;;;;;13.32;2.30;;;5.60;99.90;;;;;;5064203;28;20082;-59
2023/11/24 00:20:38;;;;;;;15.07;2.20;;;5.60;99.90;;;;;;5066096;28;20050;-59
2023/11/24 00:23:04;;;;;;;12.02;2.45;;;5.60;99.90;;;;;;5061569;28;20050;-58
2023/11/24 00:25:32;;;;;;;9.25;1.50;;;5.60;99.90;;;;;;5069069;28;20047;-60
2023/11/24 00:27:58;;;;;;;8.25;1.35;;;5.70;99.90;;;;;;5059470;28;20454;-59
2023/11/24 00:30:23;;;;;;;8.32;0.93;;;5.60;99.90;;;;;;5065883;28;20060;-59
2023/11/24 00:32:49;;;;;;;5.55;1.00;;;5.60;99.90;;;;;;5046740;28;20047;-60
2023/11/24 00:35:15;;;;;;;7.88;1.10;;;5.60;99.90;;;;;;5049447;28;20117;-61
2023/11/24 00:37:40;;;;;;;9.15;0.95;;;5.50;99.90;;;;;;5039959;28;20421;-60
2023/11/24 00:40:13;;;;;;;7.25;0.90;;;5.40;99.90;;;;;;5047411;28;20040;-58
2023/11/24 00:42:40;;;;;;;9.52;0.85;;;5.20;99.90;;;;;;5044391;28;20520;-60
2023/11/24 00:45:07;;;;;;;7.05;1.00;;;5.10;99.90;;;;;;5043962;28;20056;-60
2023/11/24 00:47:33;;;;;;;6.47;1.45;;;5.00;99.90;;;;;;5045317;28;20055;-59
2023/11/24 00:49:59;;;;;;;7.95;1.10;;;5.00;99.90;;;;;;5045042;28;20128;-57
2023/11/24 00:52:27;;;;;;;9.60;1.05;;;5.10;99.90;;;;;;5046828;28;20135;-55
2023/11/24 00:54:54;;;;;;;9.52;1.52;;;5.00;99.90;;;;;;5045863;28;20489;-57
2023/11/24 00:57:19;;;;;;;17.00;2.22;;;4.90;99.90;;;;;;5045984;28;20052;-60
2023/11/24 00:59:45;;;;;;;10.35;1.80;;;4.80;99.90;;;;;;5044654;28;20044;-59
2023/11/24 01:02:11;;;;;;;9.30;1.67;;;4.90;99.90;;;;;;5044185;28;20192;-60
2023/11/24 01:04:36;;;;;;;10.63;2.95;;;4.80;99.90;;;;;;5045543;28;20045;-60
2023/11/24 01:07:03;;;;;;;17.92;2.10;;;4.80;99.90;;;;;;5045227;28;20052;-61
2023/11/24 01:09:28;;;;;;;12.32;2.55;;;4.70;99.90;;;;;;5040559;28;20037;-60
2023/11/24 01:11:54;;;;;;;24.10;2.63;;;4.60;99.90;;;;;;5046176;28;20041;-60
2023/11/24 01:14:19;;;;;;;10.38;1.58;;;4.60;99.90;;;;;;5040923;28;20449;-59
2023/11/24 01:16:45;;;;;;;14.00;2.15;;;4.50;99.90;;;;;;5045629;28;20052;-57
2023/11/24 01:19:10;;;;;;;15.88;2.35;;;4.60;99.90;;;;;;5040201;28;20045;-59
2023/11/24 01:21:36;;;;;;;14.18;1.85;;;4.60;99.90;;;;;;5045674;28;20037;-54
2023/11/24 01:24:02;;;;;;;9.45;1.65;;;4.60;99.90;;;;;;5044313;28;20040;-60
2023/11/24 01:26:31;;;;;;;15.68;1.95;;;4.60;99.90;;;;;;5049807;28;20041;-59
2023/11/24 01:28:58;;;;;;;10.93;1.60;;;4.50;99.90;;;;;;5042748;28;20113;-60
2023/11/24 01:31:24;;;;;;;16.27;2.58;;;4.50;99.90;;;;;;5053532;28;20594;-59
2023/11/24 01:33:50;;;;;;;27.13;2.00;;;4.50;99.90;;;;;;5057627;28;20610;-59
2023/11/24 01:36:15;;;;;;;18.58;1.73;;;4.40;99.90;;;;;;5066601;28;20048;-61
2023/11/24 01:38:41;;;;;;;19.35;2.20;;;4.50;99.90;;;;;;5064851;28;20029;-57
2023/11/24 01:41:08;;;;;;;15.27;2.45;;;4.40;99.90;;;;;;5065140;28;20531;-60
2023/11/24 01:43:34;;;;;;;15.77;2.08;;;4.40;99.90;;;;;;5067587;28;20040;-55
2023/11/24 01:46:00;;;;;;;10.82;1.80;;;4.40;99.90;;;;;;5068572;28;20495;-59
2023/11/24 01:48:28;;;;;;;11.40;1.92;;;4.40;99.90;;;;;;5061802;28;20110;-61
2023/11/24 01:50:54;;;;;;;9.20;1.67;;;4.40;99.90;;;;;;5062163;28;20032;-61
2023/11/24 01:53:19;;;;;;;18.25;1.85;;;4.50;99.90;;;;;;5062353;28;20730;-59
2023/11/24 01:55:47;;;;;;;7.88;1.55;;;4.50;99.90;;;;;;5064233;28;20063;-61
2023/11/24 01:58:13;;;;;;;13.80;1.35;;;4.50;99.90;;;;;;5061792;28;20044;-61
2023/11/24 02:00:39;;;;;;;14.30;2.00;;;4.40;99.90;;;;;;5064651;28;20373;-61
2023/11/24 02:03:05;;;;;;;10.98;2.10;;;4.40;99.90;;;;;;5060171;28;20119;-61
2023/11/24 02:05:31;;;;;;;8.18;1.30;;;4.40;99.90;;;;;;5064523;28;20127;-61
2023/11/24 02:07:57;;;;;;;20.08;1.90;;;4.30;99.90;;;;;;5060551;28;20066;-61
2023/11/24 02:10:23;;;;;;;13.85;2.10;;;4.40;99.90;;;;;;5064048;28;20041;-61
2023/11/24 02:12:50;;;;;;;17.05;2.20;;;4.40;99.90;;;;;;5061552;28;20123;-57
2023/11/24 02:15:17;;;;;;;12.13;1.80;;;4.30;99.90;;;;;;5062075;28;20044;-60
2023/11/24 02:17:42;;;;;;;10.15;1.67;;;4.30;99.90;;;;;;5062497;28;20074;-59
2023/11/24 02:20:13;;;;;;;20.27;2.13;;;4.30;99.90;;;;;;5070586;28;20139;-60
2023/11/24 02:22:41;;;;;;;12.88;1.42;;;4.40;99.90;;;;;;5059617;28;20085;-58
2023/11/24 02:25:08;;;;;;;17.95;1.85;;;4.40;99.90;;;;;;5066350;28;20066;-59
2023/11/24 02:27:33;;;;;;;15.32;2.10;;;4.50;99.90;;;;;;5064781;28;20118;-57
2023/11/24 02:29:59;;;;;;;14.45;1.67;;;4.40;99.90;;;;;;5058920;28;20516;-61
2023/11/24 02:32:25;;;;;;;8.95;1.75;;;4.40;99.90;;;;;;5064093;28;20048;-60
2023/11/24 02:34:50;;;;;;;8.15;1.67;;;4.40;99.90;;;;;;5065135;28;20040;-62
2023/11/24 02:37:16;;;;;;;15.60;2.00;;;4.30;99.90;;;;;;5065096;28;20044;-59
2023/11/24 02:39:41;;;;;;;10.18;1.55;;;4.40;99.90;;;;;;5058715;28;20514;-60
2023/11/24 02:42:07;;;;;;;14.15;3.15;;;4.30;99.90;;;;;;5056571;28;20086;-60
2023/11/24 02:44:33;;;;;;;16.17;2.55;;;4.20;99.90;;;;;;5062338;28;20128;-60
2023/11/24 02:46:59;;;;;;;10.15;1.60;;;4.10;99.90;;;;;;5061385;28;20133;-59
2023/11/24 02:49:24;;;;;;;11.85;1.85;;;4.20;99.90;;;;;;5062962;28;20274;-58
2023/11/24 02:51:50;;;;;;;15.30;2.35;;;4.20;99.90;;;;;;5062053;28;20563;-59
2023/11/24 02:54:16;;;;;;;10.93;1.85;;;4.20;99.90;;;;;;5064567;28;20036;-60
2023/11/24 02:56:41;;;;;;;11.93;2.38;;;4.30;99.90;;;;;;5064884;28;20124;-58
2023/11/24 02:59:07;;;;;;;9.68;1.95;;;4.20;99.90;;;;;;5062278;28;20036;-57
2023/11/24 03:01:32;;;;;;;11.60;2.28;;;4.20;99.90;;;;;;5065117;28;20052;-58
2023/11/24 03:03:58;;;;;;;16.00;2.50;;;4.30;99.90;;;;;;5063849;28;20036;-57
2023/11/24 03:06:23;;;;;;;12.57;2.15;;;4.20;99.90;;;;;;5066025;28;20055;-58
2023/11/24 03:08:49;;;;;;;11.77;2.67;;;4.30;99.90;;;;;;5064870;28;20101;-61
2023/11/24 03:11:15;;;;;;;9.57;2.03;;;4.30;99.90;;;;;;5065810;28;20024;-62
2023/11/24 03:13:40;;;;;;;12.75;2.25;;;4.30;99.90;;;;;;5065283;28;20158;-56
2023/11/24 03:16:06;;;;;;;16.77;2.58;;;4.30;99.90;;;;;;5066121;28;20040;-60
2023/11/24 03:18:33;;;;;;;16.92;3.08;;;4.40;99.90;;;;;;5065239;28;20102;-61
2023/11/24 03:20:59;;;;;;;14.05;2.35;;;4.30;99.90;;;;;;5066231;28;21187;-61
2023/11/24 03:23:24;;;;;;;17.42;2.33;;;4.40;99.90;;;;;;5063633;28;20045;-61
2023/11/24 03:25:50;;;;;;;14.38;1.90;;;4.30;99.90;;;;;;5066076;28;20036;-61
2023/11/24 03:28:18;;;;;;;18.02;2.28;;;4.30;99.90;;;;;;5063417;28;20507;-61
2023/11/24 03:30:44;;;;;;;14.27;2.47;;;4.30;99.90;;;;;;5057063;28;20496;-61
2023/11/24 03:33:09;;;;;;;21.00;2.88;;;4.30;99.90;;;;;;5041775;28;20106;-62
2023/11/24 03:35:35;;;;;;;17.63;3.20;;;4.40;99.90;;;;;;5048717;28;20079;-57
2023/11/24 03:38:01;;;;;;;18.08;2.60;;;4.40;99.90;;;;;;5044631;28;20086;-60
2023/11/24 03:40:27;;;;;;;16.38;2.75;;;4.40;99.90;;;;;;5045085;28;20069;-60
2023/11/24 03:42:52;;;;;;;22.48;3.65;;;4.30;99.90;;;;;;5044398;28;20142;-60
2023/11/24 03:45:18;;;;;;;18.75;2.38;;;4.30;99.90;;;;;;5045147;28;20056;-62
2023/11/24 03:47:43;;;;;;;14.70;1.92;;;4.40;99.90;;;;;;5044980;28;20040;-62
2023/11/24 03:50:10;;;;;;;13.05;2.10;;;4.50;99.90;;;;;;5046142;28;20045;-58
2023/11/24 03:52:36;;;;;;;21.13;2.83;;;4.40;99.90;;;;;;5045406;28;20037;-60
2023/11/24 03:55:03;;;;;;;17.88;2.40;;;4.50;99.90;;;;;;5045946;28;20033;-59
2023/11/24 03:57:29;;;;;;;15.45;1.98;;;4.50;99.90;;;;;;5051301;28;20070;-59
2023/11/24 03:59:54;;;;;;;12.00;2.13;;;4.50;99.90;;;;;;5048103;28;20256;-59
2023/11/24 04:02:20;;;;;;;21.13;3.10;;;4.50;99.90;;;;;;5048950;28;20488;-55
2023/11/24 04:04:48;;;;;;;15.68;2.53;;;4.50;99.90;;;;;;5047507;28;20497;-59
2023/11/24 04:07:14;;;;;;;19.33;2.38;;;4.60;99.90;;;;;;5045212;28;20033;-60
2023/11/24 04:09:39;;;;;;;13.40;2.97;;;4.60;99.90;;;;;;5049679;28;20082;-61
2023/11/24 04:12:06;;;;;;;20.80;2.38;;;4.50;99.90;;;;;;5047565;28;20539;-59
2023/11/24 04:14:31;;;;;;;14.73;2.30;;;4.50;99.90;;;;;;5049814;28;20044;-60
2023/11/24 04:16:59;;;;;;;13.95;2.50;;;4.40;99.90;;;;;;5046290;28;20455;-61
2023/11/24 04:19:25;;;;;;;16.67;2.80;;;4.40;99.90;;;;;;5048284;28;20048;-60
2023/11/24 04:21:51;;;;;;;22.95;2.42;;;4.50;99.90;;;;;;5049696;28;20040;-60
2023/11/24 04:24:16;;;;;;;10.68;2.22;;;4.50;99.90;;;;;;5048387;28;20110;-60
2023/11/24 04:26:42;;;;;;;22.17;3.50;;;4.50;99.90;;;;;;5044795;28;20493;-61
2023/11/24 04:29:07;;;;;;;21.35;2.95;;;4.50;99.90;;;;;;5048385;28;20427;-59
2023/11/24 04:31:33;;;;;;;13.60;2.55;;;4.50;99.90;;;;;;5048434;28;20036;-61
2023/11/24 04:34:00;;;;;;;8.65;1.88;;;4.40;99.90;;;;;;5047397;28;20071;-61
2023/11/24 04:36:26;;;;;;;10.95;2.80;;;4.40;99.90;;;;;;5047440;28;20095;-59
2023/11/24 04:38:52;;;;;;;9.60;1.60;;;4.40;99.90;;;;;;5048426;28;20116;-58
2023/11/24 04:41:18;;;;;;;16.98;2.35;;;4.30;99.90;;;;;;5048518;28;20051;-60
2023/11/24 04:43:44;;;;;;;8.48;1.55;;;4.30;99.90;;;;;;5047867;28;20037;-59
2023/11/24 04:46:10;;;;;;;10.93;1.65;;;4.30;99.90;;;;;;5044532;28;20037;-60
2023/11/24 04:48:38;;;;;;;8.70;1.52;;;4.20;99.90;;;;;;5046043;28;20090;-61
2023/11/24 04:51:05;;;;;;;11.50;3.17;;;4.10;99.90;;;;;;5047381;28;20041;-62
2023/11/24 04:53:33;;;;;;;10.07;1.65;;;3.90;99.90;;;;;;5048627;28;20033;-60
2023/11/24 04:55:59;;;;;;;6.72;1.40;;;3.90;99.90;;;;;;5047592;28;20469;-61
2023/11/24 04:58:24;;;;;;;12.95;2.00;;;3.90;99.90;;;;;;5048604;28;20136;-58
2023/11/24 05:00:50;;;;;;;9.02;1.75;;;3.80;99.90;;;;;;5047760;28;20053;-61
2023/11/24 05:03:15;;;;;;;10.18;2.47;;;3.90;99.90;;;;;;5047294;28;20037;-56
2023/11/24 05:05:41;;;;;;;10.68;1.88;;;3.90;99.90;;;;;;5048193;28;20479;-61
2023/11/24 05:08:06;;;;;;;8.63;1.85;;;3.90;99.90;;;;;;5048154;28;20512;-56
2023/11/24 05:10:32;;;;;;;9.98;2.20;;;3.90;99.90;;;;;;5046332;28;20117;-61
2023/11/24 05:12:59;;;;;;;16.85;2.28;;;4.00;99.90;;;;;;5046148;28;20037;-59
2023/11/24 05:15:24;;;;;;;10.80;2.20;;;3.90;99.90;;;;;;5042514;28;20075;-60
2023/11/24 05:17:50;;;;;;;7.18;2.17;;;3.90;99.90;;;;;;5046326;28;20606;-58
2023/11/24 05:20:18;;;;;;;15.60;2.35;;;3.90;99.90;;;;;;5048321;28;20044;-60
2023/11/24 05:22:44;;;;;;;10.13;2.15;;;4.00;99.90;;;;;;5045378;28;20056;-61
2023/11/24 05:25:10;;;;;;;16.55;3.15;;;4.00;99.90;;;;;;5048292;28;20497;-59
2023/11/24 05:27:36;;;;;;;18.60;3.70;;;3.90;99.90;;;;;;5045629;28;20051;-59
2023/11/24 05:30:07;;;;;;;14.93;2.55;;;3.90;99.90;;;;;;5047306;28;20036;-57
2023/11/24 05:32:34;;;;;;;12.68;2.50;;;3.90;99.90;;;;;;5047306;28;20572;-58
2023/11/24 05:35:00;;;;;;;15.50;2.25;;;3.90;99.90;;;;;;5047160;28;20037;-59
2023/11/24 05:37:27;;;;;;;10.40;2.33;;;3.90;99.90;;;;;;5047397;28;20048;-55
2023/11/24 05:39:52;;;;;;;12.65;2.97;;;3.80;99.90;;;;;;5046604;28;20128;-57
2023/11/24 05:42:18;;;;;;;17.40;2.75;;;3.80;99.90;;;;;;5047527;28;20131;-58
2023/11/24 05:44:44;;;;;;;11.48;2.25;;;3.80;99.90;;;;;;5046353;28;20041;-61
2023/11/24 05:47:09;;;;;;;13.05;2.72;;;3.80;99.90;;;;;;5045766;28;20041;-58
2023/11/24 05:49:35;;;;;;;10.25;2.10;;;3.70;99.90;;;;;;5046674;28;20048;-58
2023/11/24 05:52:00;;;;;;;10.27;1.95;;;3.80;99.90;;;;;;5047737;28;20553;-59
2023/11/24 05:54:26;;;;;;;8.45;1.52;;;3.80;99.90;;;;;;5046618;28;20436;-57
2023/11/24 05:56:51;;;;;;;8.25;1.98;;;3.80;99.90;;;;;;5047119;28;20622;-60
2023/11/24 05:59:17;;;;;;;7.60;2.25;;;3.80;99.90;;;;;;5046115;28;20037;-59
2023/11/24 06:01:43;;;;;;;11.15;2.17;;;3.80;99.90;;;;;;5053229;28;23154;-62
2023/11/24 06:04:09;;;;;;;18.42;2.78;;;3.80;99.90;;;;;;5060751;28;20489;-60
2023/11/24 06:06:35;;;;;;;12.93;2.97;;;3.80;99.90;;;;;;5062256;28;20536;-62
2023/11/24 06:09:01;;;;;;;15.43;2.95;;;3.80;99.90;;;;;;5064744;28;20028;-60
2023/11/24 06:11:27;;;;;;;14.02;3.22;;;3.80;99.90;;;;;;5055778;28;20044;-61
2023/11/24 06:13:53;;;;;;;11.63;2.97;;;3.80;99.90;;;;;;5064680;28;20040;-57
2023/11/24 06:16:19;;;;;;;20.45;2.80;;;3.70;99.90;;;;;;5061965;28;20045;-62
2023/11/24 06:18:44;;;;;;;16.15;2.80;;;3.80;99.90;;;;;;5058342;28;20056;-62
2023/11/24 06:21:12;;;;;;;12.50;3.03;;;3.80;99.90;;;;;;5065774;28;20055;-63
2023/11/24 06:23:43;;;;;;;20.13;2.78;;;3.80;99.90;;;;;;5060388;28;20048;-61
2023/11/24 06:26:09;;;;;;;15.30;2.70;;;3.80;99.90;;;;;;5059613;28;20044;-62
2023/11/24 06:28:35;;;;;;;15.50;2.75;;;3.80;99.90;;;;;;5061959;28;20087;-62
2023/11/24 06:31:01;;;;;;;12.55;2.75;;;3.80;99.90;;;;;;5056711;28;20064;-58
2023/11/24 06:33:27;;;;;;;18.60;3.13;;;3.80;99.90;;;;;;5045548;28;20052;-58
2023/11/24 06:35:55;;;;;;;18.45;2.25;;;3.70;99.90;;;;;;5059864;28;20540;-62
2023/11/24 06:38:21;;;;;;;16.55;2.35;;;3.80;99.90;;;;;;5046561;28;20045;-59
2023/11/24 06:40:46;;;;;;;18.02;2.78;;;3.80;99.90;;;;;;5051603;28;20048;-60
2023/11/24 06:43:12;;;;;;;14.63;2.38;;;3.70;99.90;;;;;;5056979;28;20032;-59
2023/11/24 06:45:38;;;;;;;14.65;1.92;;;3.70;99.90;;;;;;5056736;28;20037;-60
2023/11/24 06:48:05;;;;;;;13.50;2.42;;;3.80;99.90;;;;;;5050732;28;20090;-62
2023/11/24 06:50:31;;;;;;;13.75;2.50;;;3.70;99.90;;;;;;5049376;28;20087;-57
2023/11/24 06:52:56;;;;;;;13.70;1.88;;;3.80;99.90;;;;;;5045694;28;20025;-63
2023/11/24 06:55:22;;;;;;;8.75;1.65;;;3.80;99.90;;;;;;5049306;28;20079;-62
2023/11/24 06:57:47;;;;;;;11.70;1.67;;;3.70;99.90;;;;;;5047383;28;20040;-63
2023/11/24 07:00:17;;;;;;;11.55;2.10;;;3.70;99.90;;;;;;5049558;28;20124;-64
2023/11/24 07:02:48;;;;;;;15.57;2.67;;;3.70;99.90;;;;;;5044873;28;20041;-60
2023/11/24 07:05:15;;;;;;;12.00;2.13;;;3.60;99.90;;;;;;5046077;28;20037;-63
2023/11/24 07:07:40;;;;;;;13.52;2.00;;;3.70;99.90;;;;;;5038165;28;20045;-63
2023/11/24 07:10:07;;;;;;;15.25;1.73;;;3.70;99.90;;;;;;5046263;28;20033;-63
2023/11/24 07:12:33;;;;;;;12.95;3.40;;;3.70;99.90;;;;;;5044644;28;20128;-59
2023/11/24 07:15:03;;;;;;;11.98;2.35;;;3.70;99.90;;;;;;5043577;28;20045;-61
2023/11/24 07:17:31;;;;;;;15.90;2.13;;;3.80;99.90;;;;;;5043731;28;20755;-61
2023/11/24 07:19:57;;;;;;;19.42;2.20;;;3.70;99.90;;;;;;5045634;28;20091;-59
2023/11/24 07:22:24;;;;;;;9.38;1.70;;;3.70;99.90;;;;;;5042768;28;20045;-62
2023/11/24 07:24:50;;;;;;;8.98;1.70;;;3.70;99.90;;;;;;5045941;28;20048;-55
2023/11/24 07:27:19;;;;;;;11.07;1.65;;;3.70;99.90;;;;;;5042727;28;20045;-62
2023/11/24 07:29:44;;;;;;;7.07;1.45;;;3.70;99.90;;;;;;5042997;28;20071;-62
2023/11/24 07:32:11;;;;;;;10.02;1.88;;;3.60;99.90;;;;;;5045486;28;20033;-62
2023/11/24 07:34:37;;;;;;;5.05;1.30;;;3.60;99.90;;;;;;5045689;28;20035;-59
2023/11/24 07:37:03;;;;;;;12.30;1.30;;;3.60;99.90;;;;;;5048950;28;20443;-54
2023/11/24 07:39:30;;;;;;;8.30;1.10;;;3.70;99.90;;;;;;5049377;28;20044;-61
2023/11/24 07:41:58;;;;;;;8.95;1.50;;;3.70;99.90;;;;;;5049410;28;20044;-58
2023/11/24 07:44:25;;;;;;;6.28;1.40;;;3.70;99.90;;;;;;5047212;28;20056;-60
2023/11/24 07:46:52;;;;;;;9.18;1.20;;;3.70;99.90;;;;;;5044354;28;20520;-63
2023/11/24 07:49:18;;;;;;;5.85;1.17;;;3.60;99.90;;;;;;5044421;28;20044;-62
2023/11/24 07:51:44;;;;;;;4.47;1.25;;;3.60;99.90;;;;;;5049130;28;20037;-62
2023/11/24 07:54:10;;;;;;;6.57;1.27;;;3.50;99.90;;;;;;5049120;28;20033;-62
2023/11/24 07:56:36;;;;;;;7.57;1.83;;;3.50;99.90;;;;;;5048309;28;20110;-61
2023/11/24 07:59:01;;;;;;;5.25;1.75;;;3.60;99.90;;;;;;5047242;28;20120;-62
2023/11/24 08:01:27;;;;;;;10.05;2.30;;;3.60;99.90;;;;;;5056882;28;20127;-62
2023/11/24 08:03:53;;;;;;;7.25;1.70;;;3.60;99.90;;;;;;5063516;28;20095;-61
2023/11/24 08:06:18;;;;;;;5.72;1.70;;;3.70;99.90;;;;;;5066104;28;20041;-59
2023/11/24 08:08:44;;;;;;;9.73;1.75;;;3.70;99.90;;;;;;5067537;28;20116;-62
2023/11/24 08:11:10;;;;;;;9.07;1.88;;;3.70;99.90;;;;;;5062605;28;20400;-59
2023/11/24 08:13:36;;;;;;;9.48;2.47;;;3.70;99.90;;;;;;5067982;28;20053;-60
2023/11/24 08:16:03;;;;;;;10.32;1.83;;;3.70;99.90;;;;;;5069456;28;20397;-62
2023/11/24 08:18:29;;;;;;;9.80;1.88;;;3.60;99.90;;;;;;5061232;28;20044;-60
2023/11/24 08:20:54;;;;;;;11.95;1.92;;;3.50;99.90;;;;;;5062059;28;20028;-60
2023/11/24 08:23:21;;;;;;;6.80;1.42;;;3.60;99.90;;;;;;5068904;28;20062;-62
2023/11/24 08:25:46;;;;;;;9.02;2.13;;;3.50;99.90;;;;;;5066636;28;20041;-59
2023/11/24 08:28:12;;;;;;;9.45;2.05;;;3.40;99.90;;;;;;5062912;28;20519;-60
2023/11/24 08:30:38;;;;;;;8.10;1.48;;;3.30;99.90;;;;;;5069438;28;20040;-62
2023/11/24 08:33:04;;;;;;;6.80;1.35;;;3.30;99.90;;;;;;5060986;28;20148;-59
2023/11/24 08:35:30;;;;;;;9.20;1.23;;;3.40;99.90;;;;;;5061824;28;20544;-61
2023/11/24 08:37:56;;;;;;;6.07;1.40;;;3.40;99.90;;;;;;5066964;28;20056;-61
2023/11/24 08:40:24;;;;;;;8.48;1.90;;;3.50;99.90;;;;;;5064164;28;20041;-62
2023/11/24 08:42:50;;;;;;;9.77;1.40;;;3.50;99.90;;;;;;5066480;28;20040;-60
2023/11/24 08:45:16;;;;;;;8.93;1.35;;;3.50;99.90;;;;;;5064266;28;20048;-58
2023/11/24 08:47:43;;;;;;;8.50;1.15;;;3.60;99.90;;;;;;5065707;28;20048;-59
2023/11/24 08:50:13;;;;;;;17.60;2.70;;;3.50;99.90;;;;;;5077641;28;20036;-59
2023/11/24 08:52:39;;;;;;;13.95;1.73;;;3.40;99.90;;;;;;5073345;28;20410;-60
2023/11/24 08:55:06;;;;;;;10.00;1.33;;;3.40;99.90;;;;;;5066763;28;20052;-59
2023/11/24 08:57:32;;;;;;;2.83;1.00;;;3.30;99.90;;;;;;5067383;28;20044;-59
2023/11/24 08:59:58;;;;;;;4.38;1.20;;;3.30;99.90;;;;;;5062819;28;20036;-60
2023/11/24 09:02:26;;;;;;;5.13;1.98;;;3.30;99.90;;;;;;5067342;28;20778;-61
2023/11/24 09:04:52;;;;;;;2.28;0.80;;;3.30;99.90;;;;;;5073774;28;20127;-61
2023/11/24 09:07:18;;;;;;;7.75;1.00;;;3.30;99.90;;;;;;5071515;28;20143;-62
2023/11/24 09:09:43;;;;;;;1.80;0.70;;;3.20;99.90;;;;;;5066136;28;20033;-61
2023/11/24 09:12:09;;;;;;;12.20;0.77;;;3.20;99.90;;;;;;5072882;28;20102;-61
2023/11/24 09:14:38;;;;;;;1.65;0.47;;;3.20;99.90;;;;;;5066554;28;20115;-62
2023/11/24 09:17:04;;;;;;;2.65;0.60;;;3.20;99.90;;;;;;5062669;28;20036;-56
2023/11/24 09:19:31;;;;;;;1.95;0.60;;;3.10;99.90;;;;;;5066155;28;20047;-57
2023/11/24 09:22:00;;;;;;;3.78;0.95;;;3.20;99.90;;;;;;5071719;28;20041;-58
2023/11/24 09:24:25;;;;;;;2.35;1.02;;;3.10;99.90;;;;;;5067042;28;20045;-59
2023/11/24 09:26:53;;;;;;;3.13;0.93;;;3.20;99.90;;;;;;5059703;28;20581;-63
2023/11/24 09:29:19;;;;;;;5.30;1.05;;;3.20;99.90;;;;;;5067102;28;20036;-54
2023/11/24 09:31:48;;;;;;;6.35;1.10;;;3.20;99.90;;;;;;5055731;28;20098;-57
2023/11/24 09:34:13;;;;;;;4.78;1.40;;;3.30;99.90;;;;;;5046758;28;20037;-60
2023/11/24 09:36:41;;;;;;;5.60;1.00;;;3.20;99.90;;;;;;5048210;28;20409;-59
2023/11/24 09:39:08;;;;;;;4.03;0.98;;;3.20;99.90;;;;;;5045213;28;20049;-62
2023/11/24 09:41:42;;;;;;;4.75;0.80;;;3.20;99.90;;;;;;5047472;28;20566;-60
2023/11/24 09:44:10;;;;;;;5.20;1.00;;;3.30;99.90;;;;;;5045695;28;20725;-58
2023/11/24 09:46:40;;;;;;;5.78;0.93;;;3.20;99.90;;;;;;5047339;28;20041;-60
2023/11/24 09:49:08;;;;;;;3.45;0.80;;;3.10;99.90;;;;;;5045070;28;20044;-61
2023/11/24 09:51:36;;;;;;;5.15;1.23;;;3.20;99.90;;;;;;5052037;28;20094;-61
2023/11/24 09:54:03;;;;;;;5.47;1.08;;;3.10;99.90;;;;;;5045431;28;20094;-61
2023/11/24 09:56:29;;;;;;;1.10;0.63;;;3.10;99.90;;;;;;5047582;28;20059;-54
2023/11/24 09:58:54;;;;;;;2.67;1.02;;;3.00;99.90;;;;;;5045582;28;20406;-61
2023/11/24 10:01:23;;;;;;;2.40;0.60;;;2.90;99.90;;;;;;5061809;28;20190;-55
2023/11/24 10:03:53;;;;;;;3.78;0.60;;;2.90;99.90;;;;;;5066515;28;20120;-62
2023/11/24 10:06:19;;;;;;;2.55;0.70;;;3.00;99.90;;;;;;5065540;28;20071;-60
2023/11/24 10:08:45;;;;;;;1.20;0.40;;;3.10;99.90;;;;;;5068717;28;20175;-60
2023/11/24 10:11:13;;;;;;;4.25;0.70;;;3.10;99.90;;;;;;5060979;28;20098;-58
2023/11/24 10:13:43;;;;;;;5.40;0.93;;;3.00;99.90;;;;;;5066592;28;20036;-59
2023/11/24 10:16:13;;;;;;;4.40;0.88;;;3.00;99.90;;;;;;5063459;28;20417;-60
2023/11/24 10:18:40;;;;;;;3.85;1.05;;;3.00;99.90;;;;;;5060725;28;20158;-60
2023/11/24 10:21:06;;;;;;;1.17;0.50;;;3.10;99.90;;;;;;5058346;28;20037;-58
2023/11/24 10:23:33;;;;;;;1.92;0.82;;;3.00;99.90;;;;;;5059678;28;20062;-60
2023/11/24 10:26:02;;;;;;;0.90;0.60;;;3.00;99.90;;;;;;5061282;28;20053;-61
2023/11/24 10:28:28;;;;;;;3.50;0.73;;;2.90;99.90;;;;;;5060933;28;20766;-62
2023/11/24 10:30:57;;;;;;;1.95;0.80;;;3.00;99.90;;;;;;5069710;28;20040;-60
2023/11/24 10:33:25;;;;;;;1.80;0.60;;;3.00;99.90;;;;;;5060519;28;20040;-62
2023/11/24 10:35:54;;;;;;;0.80;0.50;;;2.90;99.90;;;;;;5063045;28;20618;-60
2023/11/24 10:38:20;;;;;;;3.35;0.95;;;2.70;99.90;;;;;;5057430;28;20044;-63
2023/11/24 10:40:49;;;;;;;0.85;0.52;;;2.70;99.90;;;;;;5065095;28;20401;-63
2023/11/24 10:43:19;;;;;;;2.03;0.40;;;2.60;99.90;;;;;;5063986;28;20395;-63
2023/11/24 10:45:52;;;;;;;1.50;0.52;;;2.50;99.90;;;;;;5067153;28;20048;-63
2023/11/24 10:48:26;;;;;;;3.00;0.57;;;2.50;99.90;;;;;;5058020;28;20044;-62
2023/11/24 10:51:24;;;;;;;3.60;0.20;;;2.40;99.90;;;;;;5063404;28;20596;-63
2023/11/24 10:53:56;;;;;;;1.63;0.52;;;2.30;99.90;;;;;;5039427;28;20054;-60
2023/11/24 10:56:23;;;;;;;2.85;0.30;;;2.20;99.90;;;;;;5056581;28;20048;-63
2023/11/24 10:58:52;;;;;;;2.17;0.38;;;2.30;99.90;;;;;;5063505;28;20041;-64
2023/11/24 11:01:22;;;;;;;4.35;0.50;;;2.40;99.90;;;;;;5061626;28;20055;-59
2023/11/24 11:03:52;;;;;;;2.83;0.47;;;2.50;99.90;;;;;;5065444;28;20512;-61
2023/11/24 11:06:48;;;;;;;3.38;0.50;;;2.60;99.90;;;;;;5070447;28;20553;-61
2023/11/24 11:12:29;;;;;;;1.85;0.40;;;2.40;99.90;;;;;;5070545;28;20097;-59
2023/11/24 11:14:56;;;;;;;1.60;0.40;;;2.40;99.90;;;;;;5065272;28;20411;-64
2023/11/24 11:17:25;;;;;;;4.85;0.77;;;2.40;99.90;;;;;;5064865;28;20458;-66
2023/11/24 11:20:15;;;;;;;2.85;0.45;;;2.40;99.90;;;;;;5067908;28;20048;-61
2023/11/24 11:22:43;;;;;;;3.03;0.63;;;2.50;99.90;;;;;;5057143;28;20040;-64
2023/11/24 11:25:27;;;;;;;4.18;0.70;;;2.50;99.90;;;;;;5064149;28;20037;-62
2023/11/24 11:27:56;;;;;;;3.60;0.50;;;2.40;99.90;;;;;;5058074;28;20501;-63
2023/11/24 11:30:26;;;;;;;5.90;0.60;;;2.30;99.90;;;;;;5062363;28;20044;-62
2023/11/24 11:33:11;;;;;;;3.97;0.43;;;2.40;99.90;;;;;;5063401;28;20052;-62
2023/11/24 11:35:37;;;;;;;5.57;0.63;;;2.50;99.90;;;;;;5060943;28;20114;-64
2023/11/24 11:38:03;;;;;;;3.20;0.50;;;2.50;99.90;;;;;;5064259;28;20033;-59
2023/11/24 11:40:35;;;;;;;8.82;1.23;;;2.60;99.90;;;;;;5063168;28;20036;-62
2023/11/24 11:43:08;;;;;;;2.13;0.60;;;2.60;99.90;;;;;;5055816;28;20033;-61
2023/11/24 11:45:59;;;;;;;7.38;0.80;;;2.60;99.90;;;;;;5062565;28;20051;-62
2023/11/24 11:48:38;;;;;;;5.47;0.55;;;2.70;99.90;;;;;;5060935;28;20048;-62
2023/11/24 11:51:05;;;;;;;2.65;0.70;;;2.70;99.90;;;;;;5062948;28;20127;-58
2023/11/24 11:53:33;;;;;;;3.88;0.85;;;2.70;99.90;;;;;;5057724;28;20048;-61
2023/11/24 11:56:01;;;;;;;2.85;0.60;;;2.80;99.90;;;;;;5062717;28;20036;-60
2023/11/24 11:58:29;;;;;;;3.50;0.55;;;2.80;99.90;;;;;;5060490;28;20500;-64
2023/11/24 12:00:55;;;;;;;8.40;1.05;;;2.90;99.90;;;;;;5055075;28;20045;-63
2023/11/24 12:03:24;;;;;;;6.78;0.85;;;3.00;99.90;;;;;;5057077;28;20036;-61
2023/11/24 12:08:27;;;;;;;6.27;1.03;;;3.00;99.90;;;;;;5048227;22;20088;-59
2023/11/24 12:10:53;;;;;;;10.15;1.05;;;2.90;99.90;;;;;;4998537;28;20073;-60
2023/11/24 12:13:21;;;;;;;7.40;1.20;;;3.00;99.90;;;;;;4951406;28;20102;-61
2023/11/24 12:15:48;;;;;;;14.88;1.33;;;2.80;99.90;;;;;;4999870;28;20126;-63
2023/11/24 12:18:15;;;;;;;8.30;1.38;;;2.80;99.90;;;;;;4978039;28;20092;-62
2023/11/24 12:20:40;;;;;;;7.07;1.40;;;2.80;99.90;;;;;;5002807;28;20651;-62
2023/11/24 12:23:08;;;;;;;5.47;1.10;;;2.80;99.90;;;;;;4992678;28;20117;-63
2023/11/24 12:25:34;;;;;;;10.05;1.42;;;2.90;99.90;;;;;;5009044;28;20135;-65
2023/11/24 12:28:09;;;;;;;9.95;2.17;;;2.80;99.90;;;;;;5002034;28;20061;-64
2023/11/24 12:30:42;;;;;;;13.95;2.90;;;2.80;99.90;;;;;;4995587;28;20135;-63
2023/11/24 12:33:09;;;;;;;16.80;1.83;;;2.80;99.90;;;;;;4994499;28;20042;-57
2023/11/24 12:35:36;;;;;;;6.32;1.58;;;2.80;99.90;;;;;;4997161;28;20041;-60
2023/11/24 12:38:02;;;;;;;10.50;1.75;;;2.80;99.90;;;;;;4994934;28;20070;-63
2023/11/24 12:40:32;;;;;;;9.07;1.98;;;2.80;99.90;;;;;;5004466;28;20038;-62
2023/11/24 12:43:01;;;;;;;17.88;2.28;;;2.70;99.90;;;;;;4999311;28;20440;-63
2023/11/24 12:45:27;;;;;;;15.48;2.15;;;2.80;99.90;;;;;;5004410;28;20063;-60
2023/11/24 12:48:05;;;;;;;11.57;2.08;;;2.80;99.90;;;;;;4999413;28;20069;-63
2023/11/24 12:50:31;;;;;;;11.35;2.08;;;2.90;99.90;;;;;;5006814;28;20401;-64
2023/11/24 12:52:59;;;;;;;12.07;2.40;;;2.80;99.90;;;;;;5000808;28;20038;-56
2023/11/24 12:55:25;;;;;;;13.38;1.80;;;2.80;99.90;;;;;;5007619;28;20054;-63